Time;durP1;ratioP1;P1;durP2;ratioP2;P2;SDS_P1;SDS_P2;PMS_P1;PMS_P2;Temp;Humidity;BMP_temperature;BMP_pressure;BME280_temperature;BME280_humidity;BME280_pressure;Samples;Min_cycle;Max_cycle;Signal;HPM_P1;HPM_P2
2022/04/08 00:00:31;;;;;;;1.70;1.20;;;;;;;;;;5073346;28;24833;-53
2022/04/08 00:02:56;;;;;;;3.10;1.40;;;;;;;;;;5085857;28;24464;-53
2022/04/08 00:05:21;;;;;;;3.00;1.30;;;;;;;;;;5079315;28;24454;-53
2022/04/08 00:07:47;;;;;;;3.92;1.20;;;;;;;;;;5072979;28;24601;-53
2022/04/08 00:10:13;;;;;;;2.07;1.30;;;;;;;;;;5073375;28;24476;-53
2022/04/08 00:12:38;;;;;;;3.20;1.10;;;;;;;;;;5076095;28;24410;-54
2022/04/08 00:15:04;;;;;;;2.30;1.50;;;;;;;;;;5081201;28;24828;-53
2022/04/08 00:17:29;;;;;;;3.70;1.30;;;;;;;;;;5071239;28;24410;-53
2022/04/08 00:19:54;;;;;;;2.72;1.08;;;;;;;;;;5072439;28;24434;-53
2022/04/08 00:22:21;;;;;;;2.70;1.10;;;;;;;;;;5078451;28;24410;-53
2022/04/08 00:24:46;;;;;;;2.10;1.10;;;;;;;;;;5079323;28;24453;-54
2022/04/08 00:27:11;;;;;;;3.20;1.10;;;;;;;;;;5082217;28;24421;-52
2022/04/08 00:29:36;;;;;;;2.97;1.15;;;;;;;;;;5074620;28;24435;-59
2022/04/08 00:32:01;;;;;;;4.35;1.20;;;;;;;;;;5080511;28;24458;-54
2022/04/08 00:34:27;;;;;;;1.95;1.10;;;;;;;;;;5069881;28;24773;-54
2022/04/08 00:36:54;;;;;;;3.05;1.30;;;;;;;;;;5082475;28;24487;-54
2022/04/08 00:39:19;;;;;;;3.55;1.50;;;;;;;;;;5074386;28;24882;-53
2022/04/08 00:41:44;;;;;;;2.00;1.10;;;;;;;;;;5072006;28;24549;-53
2022/04/08 00:44:10;;;;;;;2.20;1.30;;;;;;;;;;5074209;28;24431;-53
2022/04/08 00:46:37;;;;;;;3.27;1.30;;;;;;;;;;5079727;28;24455;-53
2022/04/08 00:49:03;;;;;;;2.78;1.10;;;;;;;;;;5074217;28;24410;-53
2022/04/08 00:51:28;;;;;;;3.75;1.45;;;;;;;;;;5075666;28;24419;-54
2022/04/08 00:53:53;;;;;;;3.10;1.30;;;;;;;;;;5073531;28;25091;-54
2022/04/08 00:56:19;;;;;;;3.75;1.50;;;;;;;;;;5068089;28;24427;-54
2022/04/08 00:58:44;;;;;;;2.60;1.20;;;;;;;;;;5079708;28;24505;-53
2022/04/08 01:01:09;;;;;;;2.87;1.20;;;;;;;;;;5083654;28;24528;-53
2022/04/08 01:03:34;;;;;;;3.33;1.40;;;;;;;;;;5077788;28;24430;-54
2022/04/08 01:06:00;;;;;;;3.55;1.30;;;;;;;;;;5072261;28;24952;-53
2022/04/08 01:08:25;;;;;;;2.80;1.40;;;;;;;;;;5068939;28;24427;-53
2022/04/08 01:10:50;;;;;;;2.03;1.20;;;;;;;;;;5072784;28;24507;-53
2022/04/08 01:13:15;;;;;;;2.75;1.40;;;;;;;;;;5076808;28;24976;-53
2022/04/08 01:15:41;;;;;;;3.47;1.17;;;;;;;;;;5075701;28;24410;-52
2022/04/08 01:18:06;;;;;;;2.43;1.30;;;;;;;;;;5070048;28;24415;-53
2022/04/08 01:20:32;;;;;;;3.30;1.00;;;;;;;;;;5068270;28;24595;-57
2022/04/08 01:22:57;;;;;;;2.35;1.38;;;;;;;;;;5074127;28;24502;-53
2022/04/08 01:25:22;;;;;;;4.25;1.23;;;;;;;;;;5070668;28;24929;-53
2022/04/08 01:27:47;;;;;;;4.65;1.70;;;;;;;;;;5071073;28;24487;-53
2022/04/08 01:30:13;;;;;;;7.00;1.40;;;;;;;;;;5071234;28;24411;-53
2022/04/08 01:32:38;;;;;;;3.53;1.10;;;;;;;;;;5076944;28;24514;-53
2022/04/08 01:35:03;;;;;;;3.65;1.40;;;;;;;;;;5080758;28;24421;-52
2022/04/08 01:37:28;;;;;;;2.07;1.20;;;;;;;;;;5080753;28;24466;-53
2022/04/08 01:39:53;;;;;;;2.60;1.10;;;;;;;;;;5070396;28;24421;-53
2022/04/08 01:42:23;;;;;;;2.40;1.40;;;;;;;;;;5080506;28;24526;-50
2022/04/08 01:44:49;;;;;;;3.47;1.35;;;;;;;;;;5076322;28;24431;-51
2022/04/08 01:47:14;;;;;;;2.17;1.00;;;;;;;;;;5072482;28;24444;-51
2022/04/08 01:49:39;;;;;;;2.23;1.00;;;;;;;;;;5072025;28;24463;-52
2022/04/08 01:52:05;;;;;;;2.40;1.40;;;;;;;;;;5080831;28;24422;-50
2022/04/08 01:54:30;;;;;;;2.05;1.23;;;;;;;;;;5064608;28;24488;-52
2022/04/08 01:56:55;;;;;;;3.35;1.15;;;;;;;;;;5077622;28;24517;-50
2022/04/08 01:59:20;;;;;;;2.03;1.10;;;;;;;;;;5069823;28;24770;-50
2022/04/08 02:01:45;;;;;;;2.07;1.40;;;;;;;;;;5073281;28;24517;-50
2022/04/08 02:04:11;;;;;;;2.88;1.45;;;;;;;;;;5071627;28;24426;-51
2022/04/08 02:06:36;;;;;;;3.42;1.38;;;;;;;;;;5074571;28;24868;-52
2022/04/08 02:09:02;;;;;;;1.40;1.20;;;;;;;;;;5077895;28;24410;-51
2022/04/08 02:11:27;;;;;;;1.90;1.50;;;;;;;;;;5083846;28;24509;-51
2022/04/08 02:13:52;;;;;;;2.28;1.30;;;;;;;;;;5077789;28;24842;-52
2022/04/08 02:16:17;;;;;;;2.43;1.00;;;;;;;;;;5076149;28;24418;-52
2022/04/08 02:18:42;;;;;;;2.40;1.20;;;;;;;;;;5071157;28;24418;-52
2022/04/08 02:21:09;;;;;;;1.40;1.10;;;;;;;;;;5072108;28;24860;-51
2022/04/08 02:23:34;;;;;;;3.33;1.30;;;;;;;;;;5070563;28;24467;-52
2022/04/08 02:25:59;;;;;;;1.40;1.13;;;;;;;;;;5072788;28;24534;-52
2022/04/08 02:28:25;;;;;;;2.15;1.40;;;;;;;;;;5071173;28;24952;-52
2022/04/08 02:30:52;;;;;;;3.87;1.60;;;;;;;;;;5080067;28;24479;-53
2022/04/08 02:33:18;;;;;;;3.20;1.30;;;;;;;;;;5086254;28;24426;-52
2022/04/08 02:35:43;;;;;;;2.23;1.47;;;;;;;;;;5066512;28;25009;-53
2022/04/08 02:38:09;;;;;;;2.80;1.48;;;;;;;;;;5074131;28;24414;-52
2022/04/08 02:40:34;;;;;;;3.10;1.30;;;;;;;;;;5070313;28;24449;-53
2022/04/08 02:43:00;;;;;;;1.60;1.20;;;;;;;;;;5067319;28;24487;-52
2022/04/08 02:45:25;;;;;;;2.08;1.40;;;;;;;;;;5068403;28;24427;-51
2022/04/08 02:47:50;;;;;;;3.45;1.30;;;;;;;;;;5078204;28;26788;-53
2022/04/08 02:50:15;;;;;;;3.63;1.50;;;;;;;;;;5073779;28;24465;-54
2022/04/08 02:52:40;;;;;;;2.40;1.50;;;;;;;;;;5081062;28;24414;-53
2022/04/08 02:55:06;;;;;;;1.93;1.30;;;;;;;;;;5082733;28;24785;-52
2022/04/08 02:57:31;;;;;;;2.50;1.60;;;;;;;;;;5085980;28;24517;-53
2022/04/08 02:59:58;;;;;;;3.10;1.88;;;;;;;;;;5078249;28;24425;-53
2022/04/08 03:02:23;;;;;;;1.67;1.30;;;;;;;;;;5071701;28;24531;-53
2022/04/08 03:04:48;;;;;;;2.58;1.63;;;;;;;;;;5077920;28;24534;-53
2022/04/08 03:07:13;;;;;;;2.30;1.50;;;;;;;;;;5074218;28;24469;-52
2022/04/08 03:09:39;;;;;;;3.03;1.60;;;;;;;;;;5080533;28;24974;-52
2022/04/08 03:12:04;;;;;;;2.50;1.80;;;;;;;;;;5078416;28;24422;-53
2022/04/08 03:14:31;;;;;;;2.63;1.70;;;;;;;;;;5087971;28;24421;-53
2022/04/08 03:16:56;;;;;;;1.65;1.35;;;;;;;;;;5081818;28;24438;-52
2022/04/08 03:19:21;;;;;;;1.77;1.60;;;;;;;;;;5074931;28;24458;-52
2022/04/08 03:21:46;;;;;;;1.90;1.50;;;;;;;;;;5075587;28;24971;-53
2022/04/08 03:24:12;;;;;;;2.50;1.50;;;;;;;;;;5088810;28;24414;-53
2022/04/08 03:26:37;;;;;;;3.40;1.67;;;;;;;;;;5077220;28;24843;-53
2022/04/08 03:29:02;;;;;;;3.07;1.80;;;;;;;;;;5075347;28;24498;-53
2022/04/08 03:31:28;;;;;;;2.60;1.60;;;;;;;;;;5078108;28;25234;-53
2022/04/08 03:33:53;;;;;;;3.27;1.47;;;;;;;;;;5085046;28;24411;-53
2022/04/08 03:36:20;;;;;;;2.20;1.40;;;;;;;;;;5085024;28;24458;-52
2022/04/08 03:38:45;;;;;;;2.27;1.73;;;;;;;;;;5078126;28;24449;-53
2022/04/08 03:41:11;;;;;;;2.28;1.60;;;;;;;;;;5082976;28;24529;-53
2022/04/08 03:43:36;;;;;;;1.40;1.20;;;;;;;;;;5082125;28;24468;-53
2022/04/08 03:46:01;;;;;;;2.92;1.50;;;;;;;;;;5099234;28;24796;-53
2022/04/08 03:48:26;;;;;;;2.70;1.50;;;;;;;;;;5089336;28;24418;-53
2022/04/08 03:50:51;;;;;;;3.40;1.40;;;;;;;;;;5074051;28;24411;-53
2022/04/08 03:53:17;;;;;;;3.20;1.30;;;;;;;;;;5082469;28;24483;-53
2022/04/08 03:55:42;;;;;;;2.20;1.40;;;;;;;;;;5077519;28;24457;-53
2022/04/08 03:58:08;;;;;;;2.00;1.30;;;;;;;;;;5073322;28;24415;-52
2022/04/08 04:00:33;;;;;;;2.07;1.30;;;;;;;;;;5074528;28;24502;-53
2022/04/08 04:02:58;;;;;;;1.30;1.20;;;;;;;;;;5074255;28;24483;-53
2022/04/08 04:05:23;;;;;;;1.40;1.30;;;;;;;;;;5086439;28;24427;-53
2022/04/08 04:07:48;;;;;;;2.10;1.40;;;;;;;;;;5086155;28;24407;-52
2022/04/08 04:10:14;;;;;;;2.88;1.30;;;;;;;;;;5088733;28;24506;-52
2022/04/08 04:12:41;;;;;;;1.70;1.60;;;;;;;;;;5082329;28;24502;-52
2022/04/08 04:15:08;;;;;;;1.83;1.40;;;;;;;;;;5073509;28;24419;-53
2022/04/08 04:17:33;;;;;;;1.40;1.30;;;;;;;;;;5075482;28;24862;-52
2022/04/08 04:19:58;;;;;;;1.58;1.45;;;;;;;;;;5077632;28;24461;-53
2022/04/08 04:22:23;;;;;;;1.70;1.60;;;;;;;;;;5076492;28;24437;-53
2022/04/08 04:24:48;;;;;;;2.60;1.70;;;;;;;;;;5078675;28;24418;-53
2022/04/08 04:27:26;;;;;;;1.83;1.40;;;;;;;;;;5076054;28;24457;-53
2022/04/08 04:29:51;;;;;;;2.70;1.60;;;;;;;;;;5074726;28;25461;-53
2022/04/08 04:32:18;;;;;;;1.80;1.50;;;;;;;;;;5077355;28;24484;-53
2022/04/08 04:34:43;;;;;;;2.63;1.70;;;;;;;;;;5070574;28;24798;-53
2022/04/08 04:37:08;;;;;;;2.03;1.53;;;;;;;;;;5079853;28;24982;-53
2022/04/08 04:39:34;;;;;;;2.73;1.70;;;;;;;;;;5072647;28;24494;-52
2022/04/08 04:41:59;;;;;;;1.67;1.50;;;;;;;;;;5067650;28;24422;-53
2022/04/08 04:44:26;;;;;;;2.30;1.60;;;;;;;;;;5082386;28;24797;-53
2022/04/08 04:46:52;;;;;;;2.47;1.80;;;;;;;;;;5071016;28;24410;-52
2022/04/08 04:49:17;;;;;;;1.80;1.70;;;;;;;;;;5068670;28;24964;-53
2022/04/08 04:51:42;;;;;;;2.00;1.80;;;;;;;;;;5082569;28;24475;-53
2022/04/08 04:54:07;;;;;;;2.10;1.90;;;;;;;;;;5073460;28;24462;-53
2022/04/08 04:56:33;;;;;;;2.10;1.90;;;;;;;;;;5072678;28;24407;-53
2022/04/08 04:58:58;;;;;;;2.00;1.80;;;;;;;;;;5076339;28;24773;-53
2022/04/08 05:01:23;;;;;;;3.70;1.80;;;;;;;;;;5076396;28;24479;-53
2022/04/08 05:03:48;;;;;;;2.60;1.80;;;;;;;;;;5075859;28;24503;-53
2022/04/08 05:06:13;;;;;;;3.23;2.10;;;;;;;;;;5073479;28;24465;-53
2022/04/08 05:08:39;;;;;;;2.50;2.00;;;;;;;;;;5081664;28;24421;-53
2022/04/08 05:11:04;;;;;;;2.43;1.80;;;;;;;;;;5071521;28;24411;-52
2022/04/08 05:13:29;;;;;;;2.90;1.83;;;;;;;;;;5082155;28;24448;-53
2022/04/08 05:15:54;;;;;;;2.80;2.00;;;;;;;;;;5073572;28;24473;-53
2022/04/08 05:18:19;;;;;;;1.90;1.70;;;;;;;;;;5068381;28;24426;-53
2022/04/08 05:20:44;;;;;;;3.60;2.10;;;;;;;;;;5069968;28;24990;-54
2022/04/08 05:23:09;;;;;;;3.00;1.90;;;;;;;;;;5077231;28;24416;-53
2022/04/08 05:25:35;;;;;;;2.75;2.00;;;;;;;;;;5076298;28;24433;-52
2022/04/08 05:28:00;;;;;;;2.40;2.00;;;;;;;;;;5072590;28;24466;-53
2022/04/08 05:30:25;;;;;;;2.80;1.75;;;;;;;;;;5065737;28;24421;-53
2022/04/08 05:32:50;;;;;;;2.30;1.90;;;;;;;;;;5068030;28;24477;-53
2022/04/08 05:35:16;;;;;;;1.80;1.70;;;;;;;;;;5072317;28;25060;-53
2022/04/08 05:37:42;;;;;;;1.90;1.70;;;;;;;;;;5087990;28;24482;-53
2022/04/08 05:40:10;;;;;;;1.80;1.70;;;;;;;;;;5086386;28;24553;-53
2022/04/08 05:42:35;;;;;;;2.03;1.70;;;;;;;;;;5088101;28;24997;-53
2022/04/08 05:45:01;;;;;;;3.53;1.70;;;;;;;;;;5088047;28;24426;-53
2022/04/08 05:47:27;;;;;;;1.75;1.65;;;;;;;;;;5073717;28;24922;-53
2022/04/08 05:49:52;;;;;;;1.90;1.80;;;;;;;;;;5070051;28;25017;-53
2022/04/08 05:52:17;;;;;;;2.05;1.77;;;;;;;;;;5090709;28;24639;-53
2022/04/08 05:54:42;;;;;;;2.50;2.00;;;;;;;;;;5084895;28;24970;-53
2022/04/08 05:57:07;;;;;;;3.08;1.77;;;;;;;;;;5084085;28;24406;-53
2022/04/08 05:59:33;;;;;;;1.90;1.80;;;;;;;;;;5079324;28;24461;-53
2022/04/08 06:01:58;;;;;;;1.90;1.80;;;;;;;;;;5083306;28;24884;-53
2022/04/08 06:04:23;;;;;;;1.90;1.70;;;;;;;;;;5068925;28;24426;-53
2022/04/08 06:06:48;;;;;;;3.10;1.90;;;;;;;;;;5078469;28;24984;-52
2022/04/08 06:09:14;;;;;;;2.00;1.90;;;;;;;;;;5074284;28;24465;-58
2022/04/08 06:11:39;;;;;;;3.70;1.70;;;;;;;;;;5068267;28;24506;-52
2022/04/08 06:14:04;;;;;;;3.40;1.90;;;;;;;;;;5075695;28;25058;-52
2022/04/08 06:16:29;;;;;;;2.83;2.00;;;;;;;;;;5071630;28;24473;-52
2022/04/08 06:18:55;;;;;;;2.50;1.77;;;;;;;;;;5071966;28;24506;-53
2022/04/08 06:21:21;;;;;;;2.17;1.90;;;;;;;;;;5068618;28;24475;-51
2022/04/08 06:23:46;;;;;;;1.90;1.70;;;;;;;;;;5066645;28;25003;-52
2022/04/08 06:26:12;;;;;;;2.03;1.40;;;;;;;;;;5066248;28;24537;-53
2022/04/08 06:28:37;;;;;;;3.85;1.90;;;;;;;;;;5066830;28;24431;-52
2022/04/08 06:31:03;;;;;;;2.05;1.80;;;;;;;;;;5066393;28;24455;-53
2022/04/08 06:33:28;;;;;;;3.37;1.90;;;;;;;;;;5066582;28;24391;-53
2022/04/08 06:35:53;;;;;;;2.88;1.90;;;;;;;;;;5079581;28;24414;-52
2022/04/08 06:38:18;;;;;;;2.20;2.00;;;;;;;;;;5087178;28;24740;-53
2022/04/08 06:40:43;;;;;;;3.00;1.70;;;;;;;;;;5087753;28;24440;-52
2022/04/08 06:43:08;;;;;;;2.03;1.83;;;;;;;;;;5087095;28;24478;-52
2022/04/08 06:45:34;;;;;;;2.17;1.90;;;;;;;;;;5085502;28;24515;-52
2022/04/08 06:47:59;;;;;;;2.10;1.80;;;;;;;;;;5087466;28;24409;-52
2022/04/08 06:50:25;;;;;;;2.27;1.90;;;;;;;;;;5086747;28;24459;-52
2022/04/08 06:52:51;;;;;;;2.20;2.00;;;;;;;;;;5087065;28;24446;-53
2022/04/08 06:55:16;;;;;;;2.17;1.77;;;;;;;;;;5087378;28;24402;-52
2022/04/08 06:57:41;;;;;;;4.40;2.08;;;;;;;;;;5085298;28;24967;-51
2022/04/08 07:00:08;;;;;;;3.22;1.90;;;;;;;;;;5086803;28;24444;-53
2022/04/08 07:02:33;;;;;;;2.40;1.70;;;;;;;;;;5087239;28;25020;-52
2022/04/08 07:04:58;;;;;;;2.20;2.00;;;;;;;;;;5086643;28;24501;-52
2022/04/08 07:07:27;;;;;;;2.20;1.67;;;;;;;;;;5085560;28;24846;-53
2022/04/08 07:09:52;;;;;;;2.17;1.57;;;;;;;;;;5087275;28;24424;-53
2022/04/08 07:12:17;;;;;;;2.90;2.20;;;;;;;;;;5086740;28;24398;-53
2022/04/08 07:14:43;;;;;;;2.20;1.90;;;;;;;;;;5087049;28;24402;-53
2022/04/08 07:17:08;;;;;;;1.92;1.80;;;;;;;;;;5084985;28;24417;-53
2022/04/08 07:19:33;;;;;;;2.00;1.70;;;;;;;;;;5086419;28;24998;-52
2022/04/08 07:21:58;;;;;;;1.70;1.60;;;;;;;;;;5087030;28;24486;-53
2022/04/08 07:24:23;;;;;;;1.70;1.60;;;;;;;;;;5085665;28;24421;-52
2022/04/08 07:26:48;;;;;;;2.85;1.63;;;;;;;;;;5066580;28;24979;-52
2022/04/08 07:29:14;;;;;;;2.10;1.90;;;;;;;;;;5081740;28;24880;-52
2022/04/08 07:31:39;;;;;;;1.67;1.40;;;;;;;;;;5086301;28;24482;-51
2022/04/08 07:34:04;;;;;;;1.60;1.50;;;;;;;;;;5086055;28;24414;-52
2022/04/08 07:36:29;;;;;;;2.13;1.50;;;;;;;;;;5088335;28;24387;-52
2022/04/08 07:38:54;;;;;;;1.53;1.40;;;;;;;;;;5087909;28;24818;-52
2022/04/08 07:41:19;;;;;;;1.60;1.30;;;;;;;;;;5089117;28;24414;-53
2022/04/08 07:43:45;;;;;;;1.60;1.40;;;;;;;;;;5090201;28;24387;-52
2022/04/08 07:46:10;;;;;;;1.52;1.40;;;;;;;;;;5089999;28;24414;-52
2022/04/08 07:48:35;;;;;;;1.90;1.63;;;;;;;;;;5088128;28;24406;-56
2022/04/08 07:51:00;;;;;;;1.70;1.50;;;;;;;;;;5090008;28;24393;-52
2022/04/08 07:53:25;;;;;;;1.50;1.40;;;;;;;;;;5089723;28;24460;-51
2022/04/08 07:55:51;;;;;;;1.50;1.40;;;;;;;;;;5089814;28;24539;-52
2022/04/08 07:58:16;;;;;;;1.70;1.20;;;;;;;;;;5089926;28;24455;-51
2022/04/08 08:00:41;;;;;;;1.40;1.30;;;;;;;;;;5087919;28;24418;-51
2022/04/08 08:03:06;;;;;;;2.10;1.38;;;;;;;;;;5089929;28;24722;-51
2022/04/08 08:05:32;;;;;;;1.73;1.40;;;;;;;;;;5090313;28;24424;-57
2022/04/08 08:07:58;;;;;;;1.75;1.30;;;;;;;;;;5090119;28;24475;-52
2022/04/08 08:10:30;;;;;;;1.23;1.13;;;;;;;;;;5088132;28;24418;-52
2022/04/08 08:12:56;;;;;;;1.77;1.50;;;;;;;;;;5090119;28;24448;-52
2022/04/08 08:15:22;;;;;;;1.60;1.40;;;;;;;;;;5089678;28;24398;-52
2022/04/08 08:17:47;;;;;;;1.30;1.20;;;;;;;;;;5089194;28;24962;-52
2022/04/08 08:20:13;;;;;;;3.10;1.50;;;;;;;;;;5086864;28;24418;-52
2022/04/08 08:22:39;;;;;;;1.70;1.38;;;;;;;;;;5089604;28;24409;-52
2022/04/08 08:25:05;;;;;;;1.40;1.30;;;;;;;;;;5089230;28;24414;-51
2022/04/08 08:27:40;;;;;;;1.30;1.30;;;;;;;;;;5089330;28;24397;-51
2022/04/08 08:30:08;;;;;;;1.80;1.30;;;;;;;;;;5089308;28;24475;-51
2022/04/08 08:32:33;;;;;;;1.10;1.00;;;;;;;;;;5086888;28;24871;-51
2022/04/08 08:34:58;;;;;;;1.30;1.20;;;;;;;;;;5089406;28;24390;-52
2022/04/08 08:37:23;;;;;;;1.60;1.40;;;;;;;;;;5089054;28;24469;-52
2022/04/08 08:39:48;;;;;;;2.13;1.30;;;;;;;;;;5088928;28;24401;-51
2022/04/08 08:42:14;;;;;;;1.58;1.20;;;;;;;;;;5087169;28;24442;-51
2022/04/08 08:44:39;;;;;;;1.10;1.10;;;;;;;;;;5081277;28;24484;-52
2022/04/08 08:47:05;;;;;;;1.70;1.30;;;;;;;;;;5068606;28;24529;-53
2022/04/08 08:49:31;;;;;;;1.30;1.20;;;;;;;;;;5068116;28;24546;-51
2022/04/08 08:51:58;;;;;;;1.50;1.20;;;;;;;;;;5068829;28;24467;-52
2022/04/08 08:54:23;;;;;;;1.20;1.10;;;;;;;;;;5068145;28;24425;-52
2022/04/08 08:56:48;;;;;;;1.43;1.10;;;;;;;;;;5088476;28;25081;-51
2022/04/08 08:59:14;;;;;;;3.10;1.10;;;;;;;;;;5088570;28;24576;-51
2022/04/08 09:01:39;;;;;;;2.40;1.17;;;;;;;;;;5088476;28;24574;-52
2022/04/08 09:04:05;;;;;;;1.90;1.10;;;;;;;;;;5088643;28;24992;-51
2022/04/08 09:06:38;;;;;;;1.10;1.00;;;;;;;;;;5073963;28;24502;-51
2022/04/08 09:09:03;;;;;;;1.20;1.10;;;;;;;;;;5068340;28;24485;-51
2022/04/08 09:11:29;;;;;;;2.30;1.20;;;;;;;;;;5075441;28;24485;-51
2022/04/08 09:14:00;;;;;;;1.40;1.10;;;;;;;;;;5088644;28;24401;-52
2022/04/08 09:16:27;;;;;;;1.50;1.40;;;;;;;;;;5077981;28;24999;-52
2022/04/08 09:18:54;;;;;;;1.58;1.15;;;;;;;;;;5068199;28;24498;-51
2022/04/08 09:21:22;;;;;;;3.78;1.40;;;;;;;;;;5067912;28;24402;-51
2022/04/08 09:23:47;;;;;;;1.80;1.40;;;;;;;;;;5067947;28;24483;-51
2022/04/08 09:26:14;;;;;;;1.73;1.20;;;;;;;;;;5069886;28;24422;-51
2022/04/08 09:28:41;;;;;;;1.60;1.20;;;;;;;;;;5088005;28;24513;-52
2022/04/08 09:31:15;;;;;;;2.10;1.30;;;;;;;;;;5084841;28;24497;-52
2022/04/08 09:33:46;;;;;;;1.50;1.40;;;;;;;;;;5068508;28;24470;-51
2022/04/08 09:36:11;;;;;;;2.50;1.60;;;;;;;;;;5068314;28;24418;-52
2022/04/08 09:38:47;;;;;;;2.40;1.45;;;;;;;;;;5068142;28;24873;-52
2022/04/08 09:41:12;;;;;;;3.50;1.58;;;;;;;;;;5066243;28;24430;-51
2022/04/08 09:43:38;;;;;;;2.10;1.40;;;;;;;;;;5068153;28;24399;-51
2022/04/08 09:46:16;;;;;;;2.00;1.70;;;;;;;;;;5067989;28;24890;-52
2022/04/08 09:48:42;;;;;;;1.40;1.30;;;;;;;;;;5067997;28;24402;-52
2022/04/08 09:51:09;;;;;;;1.73;1.40;;;;;;;;;;5067597;28;24449;-52
2022/04/08 09:53:35;;;;;;;2.10;1.50;;;;;;;;;;5086967;28;24948;-52
2022/04/08 09:56:00;;;;;;;1.65;1.33;;;;;;;;;;5087551;28;24428;-51
2022/04/08 09:58:27;;;;;;;2.20;1.40;;;;;;;;;;5087244;28;24862;-51
2022/04/08 10:00:53;;;;;;;2.90;1.70;;;;;;;;;;5086484;28;24398;-51
2022/04/08 10:03:18;;;;;;;1.63;1.33;;;;;;;;;;5071502;28;24815;-52
2022/04/08 10:05:44;;;;;;;2.30;1.70;;;;;;;;;;5067061;28;24419;-51
2022/04/08 10:08:09;;;;;;;1.90;1.33;;;;;;;;;;5067118;28;24390;-52
2022/04/08 10:10:40;;;;;;;1.43;1.30;;;;;;;;;;5076687;28;24781;-51
2022/04/08 10:13:24;;;;;;;2.47;1.50;;;;;;;;;;5085172;28;24409;-52
2022/04/08 10:16:07;;;;;;;1.50;1.40;;;;;;;;;;5087224;28;24409;-51
2022/04/08 10:18:36;;;;;;;1.70;1.50;;;;;;;;;;5087511;28;24906;-51
2022/04/08 10:21:01;;;;;;;2.58;1.80;;;;;;;;;;5085122;28;24421;-51
2022/04/08 10:23:34;;;;;;;2.13;1.80;;;;;;;;;;5072555;28;25845;-51
2022/04/08 10:25:59;;;;;;;2.10;1.80;;;;;;;;;;5086731;28;24509;-52
2022/04/08 10:28:33;;;;;;;2.60;1.60;;;;;;;;;;5087097;28;24919;-50
2022/04/08 10:30:59;;;;;;;2.10;1.90;;;;;;;;;;5087044;28;24387;-53
2022/04/08 10:33:25;;;;;;;2.33;1.60;;;;;;;;;;5086728;28;24401;-54
2022/04/08 10:35:54;;;;;;;2.60;1.50;;;;;;;;;;5085734;28;24932;-51
2022/04/08 10:38:19;;;;;;;1.52;1.40;;;;;;;;;;5086146;28;24780;-52
2022/04/08 10:40:52;;;;;;;2.05;1.60;;;;;;;;;;5087385;28;24402;-52
2022/04/08 10:43:17;;;;;;;3.90;2.10;;;;;;;;;;5086683;28;25070;-52
2022/04/08 10:45:52;;;;;;;3.05;1.52;;;;;;;;;;5084383;28;24533;-51
2022/04/08 10:48:18;;;;;;;2.22;1.90;;;;;;;;;;5086733;28;24528;-51
2022/04/08 10:50:43;;;;;;;2.08;1.73;;;;;;;;;;5084072;28;25574;-52
2022/04/08 10:53:13;;;;;;;3.03;1.90;;;;;;;;;;5086826;28;24462;-51
2022/04/08 10:55:49;;;;;;;2.70;1.70;;;;;;;;;;5076173;28;24991;-52
2022/04/08 10:58:15;;;;;;;1.77;1.67;;;;;;;;;;5066446;28;24778;-52
2022/04/08 11:00:40;;;;;;;2.00;1.80;;;;;;;;;;5071973;28;24414;-52
2022/04/08 11:03:07;;;;;;;3.23;2.20;;;;;;;;;;5086962;28;24399;-51
2022/04/08 11:05:39;;;;;;;2.15;1.90;;;;;;;;;;5086957;28;24557;-52
2022/04/08 11:08:05;;;;;;;2.08;1.88;;;;;;;;;;5086964;28;24547;-51
2022/04/08 11:10:31;;;;;;;3.03;2.10;;;;;;;;;;5085121;28;24478;-51
2022/04/08 11:12:57;;;;;;;2.60;2.30;;;;;;;;;;5091041;28;24759;-51
2022/04/08 11:15:23;;;;;;;3.27;2.20;;;;;;;;;;5090877;28;24981;-51
2022/04/08 11:17:48;;;;;;;2.58;2.13;;;;;;;;;;5091052;28;24951;-52
2022/04/08 11:20:14;;;;;;;3.00;2.00;;;;;;;;;;5090996;28;24402;-52
2022/04/08 11:22:40;;;;;;;3.33;2.03;;;;;;;;;;5074984;28;24423;-52
2022/04/08 11:25:06;;;;;;;2.45;1.90;;;;;;;;;;5070727;28;24513;-53
2022/04/08 11:27:31;;;;;;;2.10;1.77;;;;;;;;;;5070736;28;24540;-52
2022/04/08 11:29:56;;;;;;;3.10;2.30;;;;;;;;;;5070370;28;24584;-51
2022/04/08 11:32:28;;;;;;;2.60;2.10;;;;;;;;;;5078115;28;24448;-53
2022/04/08 11:34:55;;;;;;;2.87;2.00;;;;;;;;;;5091195;28;24402;-52
2022/04/08 11:37:26;;;;;;;2.22;2.03;;;;;;;;;;5090638;28;24428;-51
2022/04/08 11:39:58;;;;;;;2.75;2.50;;;;;;;;;;5090880;28;24390;-51
2022/04/08 11:42:23;;;;;;;3.00;2.70;;;;;;;;;;5088096;28;24972;-51
2022/04/08 11:44:48;;;;;;;2.60;2.10;;;;;;;;;;5090321;28;24414;-51
2022/04/08 11:47:17;;;;;;;2.70;2.50;;;;;;;;;;5090730;28;24952;-51
2022/04/08 11:49:42;;;;;;;2.30;2.10;;;;;;;;;;5090356;28;24920;-51
2022/04/08 11:52:07;;;;;;;2.50;2.10;;;;;;;;;;5090026;28;24397;-51
2022/04/08 11:54:39;;;;;;;2.60;2.40;;;;;;;;;;5072729;28;24793;-51
2022/04/08 11:57:07;;;;;;;2.40;2.20;;;;;;;;;;5069736;28;24561;-51
2022/04/08 11:59:33;;;;;;;2.22;2.10;;;;;;;;;;5069463;28;24417;-51
2022/04/08 12:01:59;;;;;;;5.20;2.50;;;;;;;;;;5069267;28;24882;-52
2022/04/08 12:04:24;;;;;;;3.30;2.40;;;;;;;;;;5080338;28;24422;-51
2022/04/08 12:06:49;;;;;;;2.60;2.40;;;;;;;;;;5089712;28;24490;-51
2022/04/08 12:09:15;;;;;;;2.50;2.30;;;;;;;;;;5089412;28;24397;-52
2022/04/08 12:11:42;;;;;;;2.63;2.40;;;;;;;;;;5089237;28;24405;-52
2022/04/08 12:14:08;;;;;;;3.58;2.30;;;;;;;;;;5087360;28;24453;-52
2022/04/08 12:16:34;;;;;;;2.67;2.47;;;;;;;;;;5089250;28;24402;-52
2022/04/08 12:18:59;;;;;;;2.40;2.20;;;;;;;;;;5089165;28;24764;-52
2022/04/08 12:21:25;;;;;;;2.17;2.03;;;;;;;;;;5089117;28;24457;-51
2022/04/08 12:23:51;;;;;;;2.80;2.60;;;;;;;;;;5087627;28;24437;-52
2022/04/08 12:26:16;;;;;;;2.30;2.10;;;;;;;;;;5071132;28;24458;-52
2022/04/08 12:28:42;;;;;;;3.73;2.40;;;;;;;;;;5069066;28;24421;-52
2022/04/08 12:31:14;;;;;;;2.80;2.50;;;;;;;;;;5069305;28;24806;-52
2022/04/08 12:33:39;;;;;;;2.47;2.28;;;;;;;;;;5069258;28;24417;-53
2022/04/08 12:36:06;;;;;;;2.77;2.43;;;;;;;;;;5068945;28;24439;-52
2022/04/08 12:38:31;;;;;;;3.83;2.55;;;;;;;;;;5068636;28;24974;-52
2022/04/08 12:40:57;;;;;;;4.57;2.42;;;;;;;;;;5068578;28;24410;-52
2022/04/08 12:43:22;;;;;;;3.20;2.40;;;;;;;;;;5068489;28;24943;-51
2022/04/08 12:45:49;;;;;;;2.60;2.40;;;;;;;;;;5073068;28;24518;-52
2022/04/08 12:48:14;;;;;;;3.50;2.50;;;;;;;;;;5088849;28;24953;-52
2022/04/08 12:50:39;;;;;;;3.30;2.55;;;;;;;;;;5088400;28;24810;-53
2022/04/08 12:53:04;;;;;;;2.47;2.28;;;;;;;;;;5088966;28;24836;-52
2022/04/08 12:55:29;;;;;;;2.50;2.30;;;;;;;;;;5088743;28;24394;-52
2022/04/08 12:57:55;;;;;;;3.00;2.70;;;;;;;;;;5086928;28;25160;-52
2022/04/08 13:00:21;;;;;;;2.60;2.40;;;;;;;;;;5088767;28;24736;-52
2022/04/08 13:02:47;;;;;;;3.33;2.67;;;;;;;;;;5088054;28;24406;-52
2022/04/08 13:05:13;;;;;;;2.20;2.10;;;;;;;;;;5088336;28;24939;-52
2022/04/08 13:07:38;;;;;;;2.65;2.40;;;;;;;;;;5075474;28;24506;-51
2022/04/08 13:10:05;;;;;;;2.70;2.50;;;;;;;;;;5068238;28;24754;-52
2022/04/08 13:12:31;;;;;;;3.30;3.00;;;;;;;;;;5067853;28;24426;-51
2022/04/08 13:14:56;;;;;;;3.42;2.40;;;;;;;;;;5068225;28;24391;-51
2022/04/08 13:17:21;;;;;;;2.60;2.40;;;;;;;;;;5071792;28;24759;-52
2022/04/08 13:19:47;;;;;;;2.50;2.30;;;;;;;;;;5087957;28;24455;-51
2022/04/08 13:22:12;;;;;;;4.50;2.40;;;;;;;;;;5087952;28;24916;-51
2022/04/08 13:24:37;;;;;;;3.30;2.50;;;;;;;;;;5085611;28;24426;-53
2022/04/08 13:27:03;;;;;;;2.77;2.17;;;;;;;;;;5087864;28;24391;-52
2022/04/08 13:29:28;;;;;;;2.70;2.50;;;;;;;;;;5087830;28;24464;-52
2022/04/08 13:31:53;;;;;;;4.00;3.00;;;;;;;;;;5087879;28;24998;-52
2022/04/08 13:34:19;;;;;;;2.90;2.60;;;;;;;;;;5085471;28;24487;-52
2022/04/08 13:36:44;;;;;;;2.88;2.67;;;;;;;;;;5087433;28;24402;-53
2022/04/08 13:39:10;;;;;;;2.90;2.60;;;;;;;;;;5088055;28;24386;-52
2022/04/08 13:41:35;;;;;;;2.63;2.43;;;;;;;;;;5087875;28;24997;-52
2022/04/08 13:44:00;;;;;;;3.30;2.50;;;;;;;;;;5085800;28;25276;-52
2022/04/08 13:46:25;;;;;;;3.50;2.60;;;;;;;;;;5087564;28;24842;-52
2022/04/08 13:48:51;;;;;;;2.80;2.50;;;;;;;;;;5087314;28;24936;-52
2022/04/08 13:51:17;;;;;;;2.50;2.30;;;;;;;;;;5087688;28;24389;-52
2022/04/08 13:53:42;;;;;;;2.75;2.30;;;;;;;;;;5074755;28;24493;-53
2022/04/08 13:56:07;;;;;;;2.80;2.60;;;;;;;;;;5083234;28;24859;-52
2022/04/08 13:58:32;;;;;;;3.13;2.10;;;;;;;;;;5086431;28;24825;-52
2022/04/08 14:00:58;;;;;;;2.20;2.00;;;;;;;;;;5086674;28;24453;-52
2022/04/08 14:03:23;;;;;;;2.70;1.90;;;;;;;;;;5075048;28;24482;-52
2022/04/08 14:05:49;;;;;;;2.90;1.83;;;;;;;;;;5078054;28;24492;-52
2022/04/08 14:08:14;;;;;;;1.98;1.80;;;;;;;;;;5067710;28;24448;-51
2022/04/08 14:10:39;;;;;;;1.70;1.60;;;;;;;;;;5067398;28;24796;-52
2022/04/08 14:13:06;;;;;;;2.40;2.13;;;;;;;;;;5066796;28;24426;-52
2022/04/08 14:15:32;;;;;;;3.73;2.80;;;;;;;;;;5071842;28;24422;-51
2022/04/08 14:17:57;;;;;;;2.27;2.07;;;;;;;;;;5087802;28;24769;-52
2022/04/08 14:20:22;;;;;;;2.13;1.92;;;;;;;;;;5087229;28;24414;-51
2022/04/08 14:22:47;;;;;;;1.80;1.70;;;;;;;;;;5084765;28;24785;-52
2022/04/08 14:25:13;;;;;;;1.80;1.70;;;;;;;;;;5087985;28;24429;-51
2022/04/08 14:27:38;;;;;;;2.20;2.00;;;;;;;;;;5068009;28;24442;-52
2022/04/08 14:30:03;;;;;;;2.10;1.90;;;;;;;;;;5067174;28;24932;-52
2022/04/08 14:32:29;;;;;;;1.90;1.80;;;;;;;;;;5066940;28;24529;-51
2022/04/08 14:34:54;;;;;;;2.10;1.70;;;;;;;;;;5067110;28;24494;-52